createdAt,value
2023-03-26T00:03:08.892Z,8.20
2023-03-26T00:08:10.052Z,8.15
2023-03-26T00:13:13.232Z,8.03
2023-03-26T00:18:12.304Z,7.90
2023-03-26T00:23:13.482Z,7.93
2023-03-26T00:28:14.554Z,8.11
2023-03-26T00:33:15.748Z,8.29
2023-03-26T00:38:16.805Z,8.39
2023-03-26T00:43:18.921Z,8.55
2023-03-26T00:48:18.085Z,8.62
2023-03-26T00:53:19.279Z,8.65
2023-03-26T00:58:20.454Z,8.72
2023-03-26T01:03:27.608Z,8.76
2023-03-26T01:08:22.583Z,8.78
2023-03-26T01:13:23.683Z,8.75
2023-03-26T01:18:24.910Z,8.76
2023-03-26T01:23:26.132Z,8.83
2023-03-26T01:28:27.258Z,8.81
2023-03-26T01:33:28.494Z,8.73
2023-03-26T01:38:29.743Z,8.78
2023-03-26T01:43:30.947Z,8.75
2023-03-26T01:48:32.147Z,8.71
2023-03-26T01:53:33.367Z,8.68
2023-03-26T01:58:34.592Z,8.68
2023-03-26T02:03:35.850Z,8.68
2023-03-26T02:08:37.036Z,8.72
2023-03-26T02:13:38.177Z,8.68
2023-03-26T02:18:39.371Z,8.63
2023-03-26T02:23:40.504Z,8.62
2023-03-26T02:28:41.677Z,8.65
2023-03-26T02:33:42.897Z,8.66
2023-03-26T02:38:44.055Z,8.63
2023-03-26T02:43:45.191Z,8.69
2023-03-26T02:48:46.317Z,8.76
2023-03-26T02:53:47.421Z,8.86
2023-03-26T02:58:48.573Z,8.97
2023-03-26T03:03:49.713Z,8.96
2023-03-26T03:08:50.881Z,8.97
2023-03-26T03:13:52.037Z,9.01
2023-03-26T03:18:53.195Z,8.99
2023-03-26T03:23:54.436Z,9.09
2023-03-26T03:28:55.585Z,8.97
2023-03-26T03:33:56.707Z,8.78
2023-03-26T03:38:57.864Z,8.72
2023-03-26T03:43:59.062Z,8.58
2023-03-26T03:49:00.213Z,8.44
2023-03-26T03:54:01.374Z,8.35
2023-03-26T03:59:02.510Z,8.33
2023-03-26T04:04:03.712Z,8.30
2023-03-26T04:09:04.850Z,8.29
2023-03-26T04:14:07.025Z,8.25
2023-03-26T04:19:06.148Z,8.22
2023-03-26T04:24:07.309Z,8.22
2023-03-26T04:29:09.556Z,8.25
2023-03-26T04:34:09.112Z,8.28
2023-03-26T04:39:08.213Z,8.29
2023-03-26T04:44:09.406Z,8.28
2023-03-26T04:49:10.537Z,8.26
2023-03-26T04:54:11.750Z,8.22
2023-03-26T04:59:11.939Z,8.20
2023-03-26T05:04:13.203Z,8.18
2023-03-26T05:09:14.452Z,8.18
2023-03-26T05:14:15.585Z,8.20
2023-03-26T05:19:16.719Z,8.25
2023-03-26T05:24:18.914Z,8.39
2023-03-26T05:29:17.951Z,8.47
2023-03-26T05:34:19.141Z,8.45
2023-03-26T05:39:20.248Z,8.45
2023-03-26T05:44:21.430Z,8.57
2023-03-26T05:49:22.571Z,8.60
2023-03-26T05:54:23.745Z,8.66
2023-03-26T05:59:25.280Z,8.73
2023-03-26T06:04:24.497Z,8.79
2023-03-26T06:09:25.552Z,8.66
2023-03-26T06:14:26.763Z,8.68
2023-03-26T06:19:27.928Z,8.84
2023-03-26T06:24:29.068Z,9.01
2023-03-26T06:29:30.248Z,9.05
2023-03-26T06:34:31.378Z,9.09
2023-03-26T06:39:32.559Z,9.04
2023-03-26T06:44:33.707Z,8.88
2023-03-26T06:49:34.905Z,8.79
2023-03-26T06:54:36.034Z,8.75
2023-03-26T06:59:37.211Z,8.83
2023-03-26T07:04:38.373Z,9.01
2023-03-26T07:09:38.540Z,9.20
2023-03-26T07:14:39.675Z,9.39
2023-03-26T07:19:40.867Z,9.45
2023-03-26T07:24:42.032Z,9.50
2023-03-26T07:29:43.463Z,9.58
2023-03-26T07:34:44.641Z,9.28
2023-03-26T07:39:45.759Z,9.16
2023-03-26T07:44:46.821Z,9.28
2023-03-26T07:49:48.013Z,9.30
2023-03-26T07:54:49.165Z,9.25
2023-03-26T07:59:50.360Z,9.18
2023-03-26T08:04:51.701Z,9.05
2023-03-26T08:09:52.940Z,8.91
2023-03-26T08:14:55.041Z,8.99
2023-03-26T08:19:54.626Z,8.91
2023-03-26T08:24:53.714Z,8.90
2023-03-26T08:29:54.852Z,8.97
2023-03-26T08:34:56.043Z,8.93
2023-03-26T08:39:57.185Z,8.78
2023-03-26T08:44:58.347Z,8.78
2023-03-26T08:49:59.480Z,8.81
2023-03-26T08:55:00.640Z,8.86
2023-03-26T09:00:02.934Z,8.87
2023-03-26T09:05:02.257Z,8.93
2023-03-26T09:10:03.368Z,8.99
2023-03-26T09:15:05.521Z,8.91
2023-03-26T09:20:04.717Z,9.01
2023-03-26T09:25:06.801Z,9.32
2023-03-26T09:30:06.963Z,9.79
2023-03-26T09:35:07.184Z,9.93
2023-03-26T09:40:06.258Z,10.07
2023-03-26T09:45:08.396Z,9.76
2023-03-26T09:50:07.499Z,8.94
2023-03-26T09:55:08.714Z,9.43
2023-03-26T10:00:09.822Z,10.44
2023-03-26T10:05:11.993Z,11.11
2023-03-26T10:10:11.182Z,11.07
2023-03-26T10:15:12.286Z,10.52
2023-03-26T10:20:13.433Z,10.14
2023-03-26T10:25:14.541Z,9.63
2023-03-26T10:30:15.725Z,9.34
2023-03-26T10:35:16.963Z,9.28
2023-03-26T10:40:18.073Z,9.70
2023-03-26T10:45:19.211Z,10.00
2023-03-26T10:50:23.077Z,10.17
2023-03-26T10:55:21.535Z,10.42
2023-03-26T11:00:21.623Z,10.68
2023-03-26T11:05:22.784Z,10.89
2023-03-26T11:10:23.959Z,11.46
2023-03-26T11:15:25.036Z,11.75
2023-03-26T11:20:26.185Z,11.65
2023-03-26T11:25:27.341Z,11.54
2023-03-26T11:30:28.436Z,11.80
2023-03-26T11:35:40.295Z,12.09
2023-03-26T11:40:29.480Z,12.45
2023-03-26T11:45:30.790Z,12.59
2023-03-26T11:50:30.961Z,12.54
2023-03-26T11:55:32.168Z,12.93
2023-03-26T12:00:33.386Z,13.03
2023-03-26T12:05:34.552Z,12.99
2023-03-26T12:10:35.676Z,13.56
2023-03-26T12:15:36.849Z,13.38
2023-03-26T12:20:37.965Z,12.57
2023-03-26T12:25:39.242Z,12.95
2023-03-26T12:30:40.372Z,13.37
2023-03-26T12:35:41.526Z,13.36
2023-03-26T12:40:42.652Z,13.55
2023-03-26T12:45:43.907Z,13.79
2023-03-26T12:50:45.197Z,13.22
2023-03-26T12:55:46.616Z,13.07
2023-03-26T13:00:47.992Z,13.09
2023-03-26T13:05:49.162Z,12.70
2023-03-26T13:10:50.271Z,13.38
2023-03-26T13:15:52.536Z,13.33
2023-03-26T13:20:51.807Z,13.32
2023-03-26T13:25:52.941Z,13.33
2023-03-26T13:30:54.488Z,13.59
2023-03-26T13:36:00.635Z,13.84
2023-03-26T13:40:53.986Z,13.96
2023-03-26T13:45:55.419Z,13.46
2023-03-26T13:50:57.038Z,13.62
2023-03-26T13:55:56.445Z,13.70
2023-03-26T14:00:58.156Z,13.56
2023-03-26T14:05:57.591Z,13.79
2023-03-26T14:10:58.679Z,13.25
2023-03-26T14:15:59.874Z,13.36
2023-03-26T14:21:01.012Z,13.94
2023-03-26T14:26:02.124Z,14.83
2023-03-26T14:31:04.333Z,15.76
2023-03-26T14:36:03.649Z,16.09
2023-03-26T14:41:05.918Z,15.72
2023-03-26T14:46:05.091Z,15.05
2023-03-26T14:51:06.269Z,14.34
2023-03-26T14:56:07.629Z,13.55
2023-03-26T15:01:09.182Z,13.58
2023-03-26T15:06:08.707Z,13.14
2023-03-26T15:11:11.835Z,13.20
2023-03-26T15:16:09.143Z,13.43
2023-03-26T15:21:10.497Z,13.15
2023-03-26T15:26:10.741Z,13.33
2023-03-26T15:31:09.853Z,13.32
2023-03-26T15:36:11.005Z,12.48
2023-03-26T15:41:11.580Z,11.62
2023-03-26T15:46:13.111Z,9.67
2023-03-26T15:51:12.643Z,8.90
2023-03-26T15:56:11.816Z,8.93
2023-03-26T16:01:13.079Z,9.42
2023-03-26T16:06:14.424Z,9.75
2023-03-26T16:11:16.584Z,9.97
2023-03-26T16:16:15.968Z,10.19
2023-03-26T16:21:32.095Z,10.39
2023-03-26T16:26:18.315Z,10.53
2023-03-26T16:31:23.423Z,10.88
2023-03-26T16:36:17.899Z,11.01
2023-03-26T16:41:19.232Z,10.51
2023-03-26T16:46:21.714Z,10.59
2023-03-26T16:51:23.117Z,10.60
2023-03-26T16:56:23.542Z,10.52
2023-03-26T17:01:22.998Z,10.32
2023-03-26T17:06:22.941Z,10.34
2023-03-26T17:11:24.302Z,10.17
2023-03-26T17:16:25.707Z,10.12
2023-03-26T17:21:27.216Z,9.56
2023-03-26T17:26:26.686Z,7.87
2023-03-26T17:31:26.244Z,7.38
2023-03-26T17:36:27.494Z,6.91
2023-03-26T17:41:27.970Z,6.83
2023-03-26T17:46:29.493Z,6.62
2023-03-26T17:51:30.599Z,6.48
2023-03-26T17:56:27.682Z,6.50
2023-03-26T18:01:31.010Z,6.50
2023-03-26T18:06:35.002Z,6.62
2023-03-26T18:11:30.488Z,6.77
2023-03-26T18:16:32.069Z,7.01
2023-03-26T18:21:32.570Z,7.24
2023-03-26T18:26:32.066Z,7.29
2023-03-26T18:31:31.633Z,7.32
2023-03-26T18:36:31.165Z,7.44
2023-03-26T18:41:30.783Z,7.53
2023-03-26T18:46:30.349Z,7.58
2023-03-26T18:51:31.697Z,7.53
2023-03-26T18:56:29.475Z,7.47
2023-03-26T19:01:29.071Z,7.81
2023-03-26T19:06:28.598Z,7.94
2023-03-26T19:11:28.187Z,7.89
2023-03-26T19:16:27.831Z,8.26
2023-03-26T19:21:27.299Z,8.12
2023-03-26T19:26:26.922Z,8.15
2023-03-26T19:31:26.458Z,8.21
2023-03-26T19:36:25.860Z,7.75
2023-03-26T19:41:28.301Z,7.04
2023-03-26T19:46:27.689Z,6.77
2023-03-26T19:51:29.183Z,6.43
2023-03-26T19:56:29.670Z,6.35
2023-03-26T20:01:31.035Z,6.48
2023-03-26T20:06:42.302Z,6.25
2023-03-26T20:11:30.735Z,6.38
2023-03-26T20:16:32.268Z,6.48
2023-03-26T20:21:31.663Z,6.54
2023-03-26T20:26:33.005Z,6.66
2023-03-26T20:31:34.470Z,6.79
2023-03-26T20:36:35.687Z,6.77
2023-03-26T20:41:36.522Z,6.46
2023-03-26T20:46:35.714Z,6.50
2023-03-26T20:51:35.842Z,6.61
2023-03-26T20:56:37.172Z,6.71
2023-03-26T21:01:38.779Z,6.66
2023-03-26T21:06:38.144Z,6.87
2023-03-26T21:11:39.240Z,6.86
2023-03-26T21:16:40.362Z,6.94
2023-03-26T21:21:42.438Z,6.95
2023-03-26T21:26:41.933Z,7.12
2023-03-26T21:31:41.197Z,7.59
2023-03-26T21:36:42.258Z,7.72
2023-03-26T21:41:43.447Z,7.93
2023-03-26T21:46:44.514Z,8.22
2023-03-26T21:51:45.855Z,8.36
2023-03-26T21:56:46.984Z,8.68
2023-03-26T22:01:48.186Z,8.71
2023-03-26T22:06:49.408Z,8.73
2023-03-26T22:11:49.483Z,8.84
2023-03-26T22:16:50.546Z,8.72
2023-03-26T22:21:51.765Z,8.63
2023-03-26T22:26:52.868Z,8.60
2023-03-26T22:31:54.195Z,8.25
2023-03-26T22:36:55.290Z,7.99
2023-03-26T22:41:56.419Z,7.63
2023-03-26T22:46:57.626Z,7.45
2023-03-26T22:51:58.778Z,7.27
2023-03-26T22:56:59.916Z,7.16
2023-03-26T23:02:01.103Z,7.04
2023-03-26T23:07:02.226Z,6.99
2023-03-26T23:12:03.330Z,7.01
2023-03-26T23:17:04.467Z,7.02
2023-03-26T23:22:06.738Z,6.99
2023-03-26T23:27:05.845Z,6.89
2023-03-26T23:32:24.099Z,6.83
2023-03-26T23:37:06.936Z,6.79
2023-03-26T23:42:08.056Z,6.71
2023-03-26T23:47:09.176Z,6.73
2023-03-26T23:52:10.326Z,6.66
2023-03-26T23:57:11.625Z,6.62
